Time;durP1;ratioP1;P1;durP2;ratioP2;P2;SDS_P1;SDS_P2;PMS_P1;PMS_P2;Temp;Humidity;BMP_temperature;BMP_pressure;BME280_temperature;BME280_humidity;BME280_pressure;Samples;Min_cycle;Max_cycle;Signal;HPM_P1;HPM_P2
2022/11/06 00:00:57;;;;;;;8.70;3.72;;;;;;;11.66;58.46;99726.34;4991170;28;20517;-60
2022/11/06 00:03:24;;;;;;;6.18;3.63;;;;;;;11.67;58.40;99728.84;4991589;28;20050;-58
2022/11/06 00:08:39;;;;;;;8.52;3.55;;;;;;;11.67;58.72;99733.28;4991125;28;20057;-59
2022/11/06 00:11:15;;;;;;;9.10;3.90;;;;;;;11.65;59.08;99724.63;4991104;28;20093;-59
2022/11/06 00:13:42;;;;;;;7.55;4.30;;;;;;;11.67;58.55;99723.56;4991476;28;20050;-59
2022/11/06 00:16:10;;;;;;;8.60;4.05;;;;;;;11.67;58.71;99728.03;4991378;28;20062;-62
2022/11/06 00:18:38;;;;;;;7.32;4.07;;;;;;;11.67;58.71;99726.22;4973921;28;20043;-58
2022/11/06 00:21:13;;;;;;;8.27;3.50;;;;;;;11.64;58.94;99726.44;4991275;28;20080;-59
2022/11/06 00:23:40;;;;;;;8.00;3.88;;;;;;;11.68;58.69;99724.44;4991235;28;20105;-57
2022/11/06 00:26:09;;;;;;;7.50;3.88;;;;;;;11.67;58.76;99707.75;4993678;28;20054;-59
2022/11/06 00:28:36;;;;;;;10.45;3.83;;;;;;;11.67;58.51;99715.66;4994505;28;20512;-59
2022/11/06 00:31:09;;;;;;;6.82;3.80;;;;;;;11.65;58.77;99725.47;4977105;28;20055;-56
2022/11/06 00:33:35;;;;;;;8.25;4.13;;;;;;;11.67;58.56;99723.56;4993383;28;20046;-59
2022/11/06 00:36:09;;;;;;;7.68;4.07;;;;;;;11.66;58.49;99721.06;4994233;28;20050;-58
2022/11/06 00:38:35;;;;;;;7.80;4.10;;;;;;;11.66;58.44;99721.06;4994335;28;20469;-59
2022/11/06 00:41:05;;;;;;;6.22;4.10;;;;;;;11.64;58.53;99715.88;4994415;28;20050;-58
2022/11/06 00:43:32;;;;;;;13.05;3.92;;;;;;;11.64;58.40;99709.75;4976980;28;20606;-59
2022/11/06 00:46:11;;;;;;;6.47;4.20;;;;;;;11.60;58.89;99711.75;4993045;28;20054;-58
2022/11/06 00:48:40;;;;;;;10.68;3.88;;;;;;;11.63;58.59;99722.09;4994117;28;20491;-58
2022/11/06 00:51:18;;;;;;;6.82;3.60;;;;;;;11.60;58.72;99714.38;4994365;28;20450;-60
2022/11/06 00:53:45;;;;;;;5.53;3.30;;;;;;;11.62;58.59;99725.66;4994236;28;20070;-60
2022/11/06 00:56:17;;;;;;;5.03;3.92;;;;;;;11.60;58.79;99709.94;4976867;28;20081;-58
2022/11/06 00:58:45;;;;;;;5.90;3.70;;;;;;;11.60;58.74;99723.13;4994019;28;20059;-59
2022/11/06 01:01:16;;;;;;;6.18;3.60;;;;;;;11.58;58.78;99706.56;4977097;28;20069;-59
2022/11/06 01:03:46;;;;;;;10.18;3.60;;;;;;;11.59;58.80;99710.88;4994197;28;20053;-60
2022/11/06 01:06:19;;;;;;;5.05;3.45;;;;;;;11.58;58.84;99719.75;4976817;28;20297;-57
2022/11/06 01:08:46;;;;;;;4.38;3.47;;;;;;;11.59;58.77;99702.97;4993842;28;20089;-59
2022/11/06 01:11:14;;;;;;;6.13;3.50;;;;;;;11.60;58.59;99704.66;4993867;28;20058;-59
2022/11/06 01:13:42;;;;;;;8.82;4.07;;;;;;;11.60;58.69;99704.66;4993658;28;20050;-59
2022/11/06 01:16:11;;;;;;;6.07;3.55;;;;;;;11.60;58.64;99712.56;4976456;28;20512;-59
2022/11/06 01:18:39;;;;;;;5.90;3.60;;;;;;;11.61;58.69;99697.59;4993815;28;21932;-58
2022/11/06 01:21:08;;;;;;;6.38;3.63;;;;;;;11.61;58.64;99694.97;4976325;28;20050;-60
2022/11/06 01:23:35;;;;;;;7.47;3.55;;;;;;;11.60;58.62;99688.84;4993321;28;20511;-59
2022/11/06 01:26:04;;;;;;;6.25;3.80;;;;;;;11.60;58.68;99688.84;4993414;28;20092;-58
2022/11/06 01:28:31;;;;;;;4.82;3.50;;;;;;;11.60;58.31;99688.00;4975935;28;20042;-60
2022/11/06 01:31:28;;;;;;;9.00;3.95;;;;;;;11.54;58.87;99691.88;4993661;28;20051;-59
2022/11/06 01:33:55;;;;;;;6.28;3.75;;;;;;;11.56;58.41;99692.59;4992104;28;20084;-58
2022/11/06 01:36:23;;;;;;;8.57;4.05;;;;;;;11.53;58.54;99702.50;4975781;28;20101;-58
2022/11/06 01:38:52;;;;;;;8.55;4.30;;;;;;;11.48;58.52;99689.63;4992883;28;20081;-58
2022/11/06 01:41:25;;;;;;;7.13;4.15;;;;;;;11.45;58.58;99703.81;4975858;28;20141;-60
2022/11/06 01:43:56;;;;;;;5.20;3.45;;;;;;;11.43;58.64;99702.22;4993382;28;20077;-58
2022/11/06 01:46:29;;;;;;;6.13;3.78;;;;;;;11.38;58.75;99697.25;4993145;28;20047;-58
2022/11/06 01:49:07;;;;;;;8.05;3.70;;;;;;;11.32;59.15;99685.28;4992956;28;20058;-59
2022/11/06 01:51:47;;;;;;;9.02;4.15;;;;;;;11.30;58.96;99684.56;4975929;28;20050;-59
2022/11/06 01:54:14;;;;;;;8.23;3.80;;;;;;;11.30;58.64;99676.66;4993012;28;20108;-61
2022/11/06 01:56:43;;;;;;;5.25;3.53;;;;;;;11.27;58.67;99666.28;4992951;28;20042;-58
2022/11/06 01:59:15;;;;;;;6.38;3.58;;;;;;;11.24;58.73;99669.09;4975463;28;20043;-59
2022/11/06 02:01:42;;;;;;;8.65;4.15;;;;;;;11.24;58.65;99665.59;4992797;28;20085;-61
2022/11/06 02:04:15;;;;;;;10.73;3.50;;;;;;;11.17;59.05;99660.72;4992910;28;20082;-59
2022/11/06 02:06:44;;;;;;;10.75;3.55;;;;;;;11.17;58.80;99667.78;4992626;28;20104;-58
2022/11/06 02:09:11;;;;;;;6.90;3.58;;;;;;;11.15;58.90;99661.78;4992695;28;20057;-60
2022/11/06 02:11:39;;;;;;;6.72;3.50;;;;;;;11.12;58.89;99647.00;4992743;28;20050;-59
2022/11/06 02:14:12;;;;;;;6.13;3.45;;;;;;;11.10;58.89;99646.22;4992718;28;20309;-58
2022/11/06 02:16:53;;;;;;;5.65;3.78;;;;;;;11.02;59.41;99644.06;4992635;28;20042;-60
2022/11/06 02:19:49;;;;;;;5.60;3.50;;;;;;;11.00;59.59;99634.56;4992591;28;20141;-59
2022/11/06 02:22:52;;;;;;;6.03;3.47;;;;;;;10.99;59.51;99635.53;4992758;28;20156;-59
2022/11/06 02:25:42;;;;;;;7.00;3.60;;;;;;;10.97;59.74;99643.50;4992497;28;20046;-59
2022/11/06 02:28:35;;;;;;;5.68;3.22;;;;;;;10.97;59.76;99642.66;4992409;28;20061;-59
2022/11/06 02:31:07;;;;;;;6.00;3.63;;;;;;;11.01;59.48;99634.47;4992365;28;20050;-58
2022/11/06 02:33:39;;;;;;;8.10;3.65;;;;;;;11.00;59.54;99638.06;4992563;28;20050;-61
2022/11/06 02:36:10;;;;;;;5.30;3.25;;;;;;;11.00;59.42;99631.94;4974966;28;20054;-59
2022/11/06 02:38:41;;;;;;;7.15;3.20;;;;;;;10.99;59.23;99638.97;4992260;28;20054;-58
2022/11/06 02:41:15;;;;;;;6.32;3.40;;;;;;;10.98;59.39;99631.19;4990884;28;20050;-59
2022/11/06 02:43:46;;;;;;;5.47;3.05;;;;;;;10.98;59.33;99631.19;4992588;28;20054;-61
2022/11/06 02:46:21;;;;;;;6.35;3.40;;;;;;;10.96;59.56;99626.03;5007146;28;20092;-60
2022/11/06 02:48:54;;;;;;;6.30;3.45;;;;;;;10.96;59.27;99636.56;4991613;28;20137;-58
2022/11/06 02:51:24;;;;;;;7.47;3.50;;;;;;;10.96;59.30;99628.66;4992041;28;20078;-59
2022/11/06 02:53:53;;;;;;;5.53;2.85;;;;;;;10.95;59.21;99630.44;4992141;28;20101;-60
2022/11/06 02:56:26;;;;;;;6.63;3.20;;;;;;;10.91;59.47;99628.91;4991639;28;20042;-59
2022/11/06 02:59:00;;;;;;;5.15;3.10;;;;;;;10.91;59.45;99625.44;4974712;28;20056;-59
2022/11/06 03:01:48;;;;;;;7.00;2.80;;;;;;;10.88;59.88;99628.28;4992126;28;20046;-59
2022/11/06 03:04:25;;;;;;;6.65;3.10;;;;;;;10.87;59.81;99616.06;4991799;28;20487;-60
2022/11/06 03:07:15;;;;;;;7.88;3.20;;;;;;;10.86;59.61;99625.72;4991562;28;20050;-59
2022/11/06 03:09:43;;;;;;;3.92;2.70;;;;;;;10.87;59.52;99616.06;4992121;28;20046;-59
2022/11/06 03:12:28;;;;;;;4.30;2.70;;;;;;;10.85;59.86;99612.66;4974431;28;20457;-60
2022/11/06 03:15:07;;;;;;;4.63;2.92;;;;;;;10.87;59.62;99613.41;4991772;28;20051;-59
2022/11/06 03:17:42;;;;;;;11.93;3.05;;;;;;;10.89;59.76;99612.38;4991599;28;20499;-60
2022/11/06 03:20:22;;;;;;;4.93;2.90;;;;;;;10.87;59.96;99613.41;4974571;28;20046;-59
2022/11/06 03:23:19;;;;;;;6.25;2.30;;;;;;;10.89;60.01;99611.53;4991668;28;20077;-59
2022/11/06 03:25:59;;;;;;;7.88;2.75;;;;;;;10.93;59.83;99613.03;4985138;28;20129;-58
2022/11/06 03:28:34;;;;;;;6.72;2.60;;;;;;;10.95;59.56;99616.41;4991723;28;20084;-59
2022/11/06 03:31:07;;;;;;;7.15;2.70;;;;;;;10.97;59.68;99609.28;4974558;28;20058;-60
2022/11/06 03:33:56;;;;;;;5.53;2.55;;;;;;;10.95;59.89;99608.50;4974236;28;20562;-59
2022/11/06 03:36:28;;;;;;;4.85;2.63;;;;;;;11.01;59.40;99602.00;4991538;28;20088;-58
2022/11/06 03:39:01;;;;;;;6.78;2.70;;;;;;;10.99;59.39;99607.38;4991701;28;20456;-61
2022/11/06 03:41:38;;;;;;;5.07;2.50;;;;;;;10.98;59.32;99607.50;4974301;28;20518;-59
2022/11/06 03:44:09;;;;;;;5.20;2.50;;;;;;;10.99;59.12;99614.44;4991910;28;20458;-62
2022/11/06 03:46:39;;;;;;;2.97;2.30;;;;;;;10.94;59.08;99612.94;4991469;28;20178;-59
2022/11/06 03:49:11;;;;;;;6.10;2.50;;;;;;;10.92;59.16;99606.91;4974237;28;20046;-60
2022/11/06 03:51:47;;;;;;;4.13;2.40;;;;;;;10.91;59.33;99614.91;4991461;28;20105;-59
2022/11/06 10:16:28;;;;;;;3.92;1.52;;;;;;;13.26;58.04;99413.81;5022720;22;20050;-61
2022/11/06 10:19:02;;;;;;;4.45;1.33;;;;;;;13.25;58.17;99414.78;4992540;28;20145;-61
2022/11/06 10:21:39;;;;;;;4.07;1.30;;;;;;;13.27;58.29;99399.66;5012449;28;20045;-60
2022/11/06 10:24:19;;;;;;;3.42;1.25;;;;;;;13.27;58.42;99403.13;5012365;28;20049;-60
2022/11/06 10:26:55;;;;;;;6.30;1.33;;;;;;;13.31;58.54;99395.84;5012154;28;20050;-61
2022/11/06 10:29:43;;;;;;;3.88;1.33;;;;;;;13.37;58.90;99394.50;4994626;28;20045;-61
2022/11/06 10:32:34;;;;;;;4.22;1.42;;;;;;;13.38;58.22;99406.78;5012219;28;20442;-60
2022/11/06 10:35:10;;;;;;;4.70;1.40;;;;;;;13.43;58.03;99410.75;5012123;28;20053;-61
2022/11/06 10:38:05;;;;;;;5.13;1.50;;;;;;;13.46;57.91;99408.84;5011755;28;20104;-60
2022/11/06 10:40:33;;;;;;;3.05;1.67;;;;;;;13.57;58.32;99405.44;5012196;28;20042;-61
2022/11/06 10:43:21;;;;;;;2.85;1.17;;;;;;;13.57;57.84;99403.63;5012031;28;20096;-61
2022/11/06 10:45:52;;;;;;;3.45;1.20;;;;;;;13.64;58.12;99401.38;5012053;28;20445;-60
2022/11/06 10:48:26;;;;;;;2.78;1.05;;;;;;;13.67;57.87;99403.78;5011823;28;20084;-60
2022/11/06 10:51:18;;;;;;;2.60;1.40;;;;;;;13.71;57.38;99394.63;5012076;28;20052;-60
2022/11/06 10:53:53;;;;;;;3.15;1.20;;;;;;;13.79;57.47;99399.34;5006864;28;20549;-59
2022/11/06 10:56:59;;;;;;;2.72;1.42;;;;;;;13.83;57.66;99390.22;5011077;28;20042;-60
2022/11/06 10:59:26;;;;;;;3.67;1.20;;;;;;;13.93;57.95;99393.00;4985206;28;20105;-60
2022/11/06 11:01:53;;;;;;;5.18;1.35;;;;;;;13.99;58.01;99389.91;4990983;28;20054;-58
2022/11/06 11:04:19;;;;;;;6.88;1.98;;;;;;;14.06;57.67;99379.69;5008539;28;20467;-62
2022/11/06 11:06:46;;;;;;;6.57;1.20;;;;;;;14.14;57.79;99377.28;5008828;28;20927;-58
2022/11/06 11:09:30;;;;;;;5.07;1.65;;;;;;;14.19;57.25;99369.81;5009758;28;20056;-60
2022/11/06 11:11:58;;;;;;;3.53;1.42;;;;;;;14.35;57.53;99371.22;4992921;28;20188;-59
2022/11/06 11:14:27;;;;;;;7.97;1.60;;;;;;;14.47;57.35;99372.09;5011128;28;20053;-60
2022/11/06 11:16:57;;;;;;;5.78;1.65;;;;;;;14.57;56.98;99356.28;4992764;28;20530;-59
2022/11/06 11:19:40;;;;;;;4.05;1.35;;;;;;;14.66;56.16;99354.69;5011289;28;20073;-61
2022/11/06 11:22:15;;;;;;;4.50;1.50;;;;;;;14.87;57.31;99346.00;4993434;28;20049;-60
2022/11/06 11:25:01;;;;;;;4.28;1.15;;;;;;;15.14;57.24;99336.75;5011304;28;20454;-59
2022/11/06 11:27:36;;;;;;;3.55;1.20;;;;;;;15.47;57.43;99327.75;5011086;28;20058;-59
2022/11/06 11:30:04;;;;;;;5.50;1.42;;;;;;;15.87;58.53;99338.59;4993925;28;20296;-59
2022/11/06 11:32:31;;;;;;;3.20;1.20;;;;;;;16.31;58.38;99310.97;5011482;28;20046;-62
2022/11/06 11:34:58;;;;;;;3.47;1.20;;;;;;;16.75;57.18;99307.97;5011393;28;20042;-58
2022/11/06 11:37:28;;;;;;;4.78;1.30;;;;;;;17.15;55.32;99300.84;5010979;28;20560;-60
2022/11/06 11:40:14;;;;;;;2.42;1.13;;;;;;;17.53;55.23;99304.44;4993740;28;20096;-59
2022/11/06 11:42:41;;;;;;;5.22;1.33;;;;;;;17.95;54.78;99307.69;5011020;28;20050;-59
2022/11/06 11:45:08;;;;;;;6.40;1.20;;;;;;;18.21;53.28;99304.34;5011394;28;20056;-59
2022/11/06 11:47:36;;;;;;;4.65;1.33;;;;;;;18.38;51.47;99297.38;5011217;28;20050;-59
2022/11/06 11:50:25;;;;;;;2.53;1.40;;;;;;;18.42;50.66;99292.56;5011205;28;20100;-61
2022/11/06 11:53:03;;;;;;;4.30;1.08;;;;;;;18.58;50.41;99297.25;5011007;28;20096;-60
2022/11/06 11:55:36;;;;;;;;;;;;;;;18.84;51.16;99283.19;5011626;28;20057;-61
2022/11/06 11:58:13;;;;;;;5.13;1.23;;;;;;;19.32;54.22;99290.94;5010825;28;20370;-60
2022/11/06 12:00:50;;;;;;;7.03;1.33;;;;;;;19.80;50.23;99286.00;5011623;28;20060;-59
2022/11/06 12:03:17;;;;;;;2.70;1.30;;;;;;;20.34;52.17;99281.41;5010842;28;20054;-61
2022/11/06 12:05:44;;;;;;;4.68;1.75;;;;;;;20.77;49.30;99281.31;5011175;28;20064;-58
2022/11/06 12:08:24;;;;;;;3.28;1.13;;;;;;;21.12;47.32;99268.63;5011154;28;20057;-61
2022/11/06 12:10:51;;;;;;;2.72;1.10;;;;;;;21.42;47.39;99257.41;5010970;28;20054;-63
2022/11/06 12:13:20;;;;;;;4.70;1.50;;;;;;;21.61;45.60;99256.19;5007110;28;20069;-59
2022/11/06 12:16:09;;;;;;;4.90;1.35;;;;;;;21.73;43.61;99246.78;4991888;28;20384;-60
2022/11/06 12:18:44;;;;;;;3.72;1.33;;;;;;;21.92;44.62;99247.38;5009476;28;20049;-60
2022/11/06 12:21:21;;;;;;;4.20;1.35;;;;;;;21.91;42.66;99235.00;4994157;28;20470;-59
2022/11/06 12:23:53;;;;;;;2.92;1.20;;;;;;;21.88;44.20;99232.66;4995545;28;20529;-60
2022/11/06 12:26:47;;;;;;;3.80;1.30;;;;;;;21.59;41.00;99226.03;5013259;28;20145;-59
2022/11/06 12:29:37;;;;;;;3.78;1.20;;;;;;;21.32;42.98;99212.06;5013885;28;20104;-62
2022/11/06 12:32:06;;;;;;;3.50;1.13;;;;;;;21.10;43.35;99217.13;5014229;28;20510;-59
2022/11/06 12:34:38;;;;;;;4.20;1.60;;;;;;;20.86;43.54;99204.59;5014133;28;20119;-60
2022/11/06 12:37:33;;;;;;;5.65;1.50;;;;;;;20.55;43.52;99198.91;4996585;28;20080;-60
2022/11/06 12:40:14;;;;;;;3.70;1.20;;;;;;;20.23;42.62;99203.22;4983630;28;20077;-60
2022/11/06 12:43:16;;;;;;;2.90;1.40;;;;;;;19.76;42.66;99189.38;4997476;28;20057;-59
2022/11/06 12:45:49;;;;;;;4.78;1.40;;;;;;;19.46;44.08;99193.41;4986939;28;20269;-59
2022/11/06 12:48:29;;;;;;;;;;;;;;;19.09;44.06;99190.88;5014281;28;20490;-61
2022/11/06 12:51:32;;;;;;;8.98;1.60;;;;;;;18.67;44.87;99179.06;5013009;28;19998;-59
2022/11/06 12:54:30;;;;;;;2.25;1.17;;;;;;;18.30;44.94;99188.06;5013860;28;20056;-60
2022/11/06 12:57:19;;;;;;;2.90;1.17;;;;;;;17.94;45.17;99172.88;5013541;28;20042;-58
2022/11/06 12:59:45;;;;;;;7.47;1.45;;;;;;;17.70;46.07;99175.09;4996281;28;20486;-59
2022/11/06 13:02:20;;;;;;;5.15;1.40;;;;;;;17.47;46.58;99163.16;5013276;28;20487;-59
2022/11/06 13:05:00;;;;;;;4.13;0.93;;;;;;;17.21;46.86;99162.00;5013713;28;20054;-62
2022/11/06 13:07:33;;;;;;;2.35;1.05;;;;;;;17.05;47.59;99152.00;5013429;28;20092;-60
2022/11/06 13:10:59;;;;;;;5.32;1.20;;;;;;;16.94;48.34;99153.78;5013640;28;20057;-62
2022/11/06 13:13:32;;;;;;;3.03;1.20;;;;;;;16.89;47.99;99147.22;4952740;29;20110;-61
2022/11/06 13:16:32;;;;;;;4.60;1.00;;;;;;;16.76;47.83;99144.88;5013676;28;20085;-60
2022/11/06 13:19:19;;;;;;;3.20;0.95;;;;;;;16.64;48.17;99136.25;5013227;28;20046;-60
2022/11/06 13:22:01;;;;;;;3.13;1.02;;;;;;;16.54;48.35;99122.97;5013353;28;20057;-59
2022/11/06 13:24:36;;;;;;;5.15;1.33;;;;;;;16.45;48.59;99129.94;5013185;28;20077;-60
2022/11/06 13:27:33;;;;;;;3.55;1.30;;;;;;;16.34;48.94;99122.97;5013110;28;20053;-60
2022/11/06 13:30:04;;;;;;;4.40;1.00;;;;;;;16.34;49.25;99127.47;5013391;28;20046;-59
2022/11/06 13:32:35;;;;;;;1.75;1.10;;;;;;;16.33;49.45;99104.53;4995735;28;20064;-59
2022/11/06 13:35:02;;;;;;;4.05;1.40;;;;;;;16.36;49.78;99112.19;4995400;28;20050;-59
2022/11/06 13:37:42;;;;;;;4.07;1.38;;;;;;;16.35;49.97;99102.56;5013101;28;20050;-58
2022/11/06 13:40:38;;;;;;;5.55;1.70;;;;;;;16.38;49.76;99099.63;4995386;28;20521;-59
2022/11/06 13:43:09;;;;;;;4.00;1.63;;;;;;;16.46;49.76;99101.56;5013018;28;20053;-59
2022/11/06 13:45:46;;;;;;;3.58;1.80;;;;;;;16.48;49.38;99096.97;5012821;28;20119;-60
2022/11/06 13:48:58;;;;;;;5.05;1.60;;;;;;;16.48;49.65;99115.56;5013122;28;20042;-58
2022/11/06 13:51:42;;;;;;;4.15;1.65;;;;;;;16.48;49.26;99095.13;4998164;28;20489;-59
2022/11/06 13:54:46;;;;;;;4.18;1.40;;;;;;;16.46;49.01;99091.81;5012904;28;20049;-59
2022/11/06 13:57:32;;;;;;;3.92;1.73;;;;;;;16.44;48.44;99096.41;5012693;28;20116;-60
2022/11/06 14:00:15;;;;;;;3.22;1.20;;;;;;;16.38;48.56;99103.13;5012337;28;20514;-59
2022/11/06 14:03:14;;;;;;;3.67;1.55;;;;;;;16.34;48.83;99095.59;5012858;28;20064;-59
2022/11/06 14:05:59;;;;;;;4.05;1.17;;;;;;;16.26;48.53;99104.25;5012162;28;20514;-59
2022/11/06 14:08:31;;;;;;;1.95;1.35;;;;;;;16.23;48.21;99102.69;5012328;28;20136;-59
2022/11/06 14:11:10;;;;;;;8.07;2.17;;;;;;;16.17;48.46;99116.56;5012608;28;20096;-59
2022/11/06 14:13:37;;;;;;;2.38;1.10;;;;;;;16.15;48.85;99110.56;5012581;28;20358;-57
2022/11/06 14:16:05;;;;;;;3.08;1.27;;;;;;;16.15;49.03;99114.03;5012513;28;20057;-59
2022/11/06 14:18:33;;;;;;;3.13;1.13;;;;;;;16.12;48.79;99113.47;4994920;28;20398;-59
2022/11/06 14:21:35;;;;;;;3.60;1.50;;;;;;;16.04;48.60;99110.69;5011954;28;20049;-60
2022/11/06 14:24:12;;;;;;;3.85;1.25;;;;;;;16.05;48.42;99101.72;5009701;28;20453;-58
2022/11/06 14:26:49;;;;;;;3.28;1.25;;;;;;;15.99;48.57;99096.00;4994473;28;20052;-60
2022/11/06 14:29:25;;;;;;;5.45;1.50;;;;;;;15.98;48.71;99109.41;5012188;28;20274;-59
2022/11/06 14:31:59;;;;;;;4.18;1.60;;;;;;;15.93;48.68;99101.84;5012078;28;20049;-60
2022/11/06 14:34:27;;;;;;;3.90;1.60;;;;;;;15.92;49.04;99092.19;4994741;28;20076;-59
2022/11/06 14:36:53;;;;;;;4.93;1.50;;;;;;;15.90;48.93;99089.66;5011771;28;20046;-59
2022/11/06 14:39:54;;;;;;;2.40;1.48;;;;;;;15.82;48.86;99096.66;5012007;28;20062;-59
2022/11/06 14:42:40;;;;;;;3.30;1.30;;;;;;;15.76;48.64;99101.56;5011899;28;20065;-63
2022/11/06 14:45:10;;;;;;;3.75;1.70;;;;;;;15.75;48.97;99094.53;4993816;28;20458;-59
2022/11/06 14:47:48;;;;;;;5.47;1.25;;;;;;;15.68;48.73;99100.53;5011716;28;20050;-61
2022/11/06 14:50:18;;;;;;;5.35;1.52;;;;;;;15.62;48.95;99102.78;5012041;28;20046;-64
2022/11/06 14:52:48;;;;;;;5.35;1.70;;;;;;;15.56;48.93;99103.34;5011795;28;20089;-61
2022/11/06 14:55:26;;;;;;;4.57;1.65;;;;;;;15.48;49.20;99097.88;4994448;28;20088;-60
2022/11/06 14:57:54;;;;;;;3.78;1.38;;;;;;;15.45;49.36;99091.03;5011436;28;20045;-60
2022/11/06 15:00:40;;;;;;;4.22;1.30;;;;;;;15.34;49.34;99084.00;4994213;28;20050;-60
2022/11/06 15:03:51;;;;;;;7.20;2.30;;;;;;;15.28;49.47;99081.88;4994341;28;20341;-59
2022/11/06 15:06:17;;;;;;;4.75;1.38;;;;;;;15.28;49.20;99094.31;5010355;28;20077;-62
2022/11/06 15:08:44;;;;;;;3.47;1.50;;;;;;;15.21;49.61;99083.38;5011130;28;20112;-60
2022/11/06 15:11:29;;;;;;;2.67;1.33;;;;;;;15.10;49.22;99084.31;5011750;28;20050;-59
2022/11/06 15:14:15;;;;;;;4.82;1.80;;;;;;;15.06;48.93;99082.94;5011667;28;20046;-60
2022/11/06 15:16:48;;;;;;;3.40;1.50;;;;;;;14.98;48.73;99081.78;5011004;28;20049;-60
2022/11/06 15:19:22;;;;;;;3.42;1.40;;;;;;;14.89;48.44;99079.09;5011391;28;20064;-59
2022/11/06 15:22:03;;;;;;;3.00;1.15;;;;;;;14.84;48.38;99066.25;5011526;28;20046;-61
2022/11/06 15:24:34;;;;;;;3.40;1.30;;;;;;;14.78;48.39;99049.06;5011315;28;20046;-59
2022/11/06 15:27:17;;;;;;;3.13;1.10;;;;;;;14.68;48.40;99046.31;5011211;28;20046;-60
2022/11/06 15:29:46;;;;;;;1.95;1.00;;;;;;;14.68;48.42;99059.56;4993793;28;20042;-60
2022/11/06 15:32:20;;;;;;;2.35;1.30;;;;;;;14.61;48.25;99057.59;4993950;28;20092;-63
2022/11/06 15:35:19;;;;;;;3.03;1.13;;;;;;;14.54;48.84;99055.44;5011058;28;20046;-59
2022/11/06 15:37:49;;;;;;;3.05;1.08;;;;;;;14.55;48.48;99045.69;4999634;28;20042;-62
2022/11/06 15:40:30;;;;;;;3.40;1.30;;;;;;;14.49;48.77;99046.22;5011566;28;20050;-59
2022/11/06 15:43:00;;;;;;;3.33;1.40;;;;;;;14.48;48.90;99048.03;5011311;28;20052;-60
2022/11/06 15:45:28;;;;;;;2.58;1.20;;;;;;;14.46;49.02;99042.00;5010871;28;20046;-61
2022/11/06 15:48:05;;;;;;;1.90;1.10;;;;;;;14.41;49.09;99030.97;4993557;28;20085;-59
2022/11/06 15:50:41;;;;;;;2.92;1.42;;;;;;;14.39;49.16;99023.16;5010939;28;20137;-59
2022/11/06 15:53:26;;;;;;;4.50;1.10;;;;;;;14.32;49.32;99027.31;5011421;28;20046;-60
2022/11/06 15:56:04;;;;;;;5.28;1.20;;;;;;;14.33;49.15;99034.28;5013550;28;20108;-60
2022/11/06 15:58:36;;;;;;;3.08;1.10;;;;;;;14.31;49.08;99015.03;5014793;28;20552;-60
2022/11/06 16:01:05;;;;;;;3.28;1.15;;;;;;;14.27;49.22;99013.63;5014771;28;20061;-61
2022/11/06 16:03:46;;;;;;;3.75;1.10;;;;;;;14.22;49.22;99024.59;4997583;28;20569;-59
2022/11/06 16:06:12;;;;;;;2.97;1.10;;;;;;;14.24;49.35;99016.53;5014677;28;20042;-59
2022/11/06 16:08:40;;;;;;;2.72;1.10;;;;;;;14.20;49.19;99026.53;5014723;28;20486;-59
2022/11/06 16:11:12;;;;;;;3.38;1.40;;;;;;;14.16;49.26;99020.66;4997135;28;20080;-60
2022/11/06 16:13:40;;;;;;;4.88;1.35;;;;;;;14.16;49.32;99020.66;5015007;28;20141;-59
2022/11/06 16:16:30;;;;;;;5.25;1.50;;;;;;;14.08;49.33;99023.09;5014355;28;20141;-59
2022/11/06 16:18:57;;;;;;;4.47;1.40;;;;;;;14.11;49.33;99011.44;4997130;28;20104;-60
2022/11/06 16:21:31;;;;;;;3.55;1.30;;;;;;;14.06;49.42;99014.47;5014380;28;20050;-60
2022/11/06 16:24:09;;;;;;;4.82;1.27;;;;;;;14.05;49.38;99016.28;5014714;28;20136;-59
2022/11/06 16:26:42;;;;;;;3.78;1.30;;;;;;;14.04;49.38;99011.94;4996614;28;20053;-67
2022/11/06 16:29:16;;;;;;;2.38;1.20;;;;;;;14.02;49.29;99011.22;5014487;28;20060;-59
2022/11/06 16:31:44;;;;;;;3.88;1.35;;;;;;;14.02;49.37;99010.41;5014390;28;20054;-59
2022/11/06 16:34:31;;;;;;;2.85;1.30;;;;;;;13.96;49.70;99010.91;5014287;28;20057;-60
2022/11/06 16:37:28;;;;;;;2.97;1.40;;;;;;;14.00;49.55;98999.09;5014125;28;20058;-59
2022/11/06 16:39:58;;;;;;;4.10;1.20;;;;;;;14.00;49.54;98999.09;5014178;28;20136;-55
2022/11/06 16:42:31;;;;;;;3.50;1.48;;;;;;;13.97;49.28;98999.38;5013853;28;20501;-59
2022/11/06 16:44:59;;;;;;;;;;;;;;;13.97;49.86;98994.09;5014333;28;20554;-63
2022/11/06 16:47:26;;;;;;;3.22;1.13;;;;;;;14.01;49.54;98990.19;5013648;28;19922;-59
2022/11/06 16:49:54;;;;;;;2.83;1.40;;;;;;;13.99;49.43;98990.34;5014096;28;20246;-59
2022/11/06 16:52:24;;;;;;;3.10;1.25;;;;;;;13.96;49.41;99000.31;5013867;28;20513;-61
2022/11/06 16:55:00;;;;;;;4.35;1.75;;;;;;;13.92;49.46;99007.69;5013810;28;20050;-59
2022/11/06 16:57:41;;;;;;;3.40;1.30;;;;;;;13.86;49.62;99008.22;5014122;28;20144;-60
2022/11/06 17:00:20;;;;;;;4.15;1.67;;;;;;;13.84;49.85;99013.63;4996707;28;20045;-62
2022/11/06 17:02:50;;;;;;;5.13;1.50;;;;;;;13.78;50.28;99006.16;5013747;28;20046;-60
2022/11/06 17:05:23;;;;;;;6.95;1.67;;;;;;;13.71;50.06;99016.41;5013588;28;20478;-59
2022/11/06 17:08:22;;;;;;;4.28;1.58;;;;;;;13.61;50.66;99011.03;4995615;28;20099;-59
2022/11/06 17:11:12;;;;;;;3.75;1.60;;;;;;;13.57;50.72;99014.91;4998882;28;20046;-59
2022/11/06 17:13:49;;;;;;;4.65;1.50;;;;;;;13.47;50.82;99008.66;5013335;28;20057;-61
2022/11/06 17:16:23;;;;;;;4.65;2.13;;;;;;;13.38;51.46;98997.03;5013798;28;20049;-60
2022/11/06 17:18:50;;;;;;;2.85;1.30;;;;;;;13.35;50.78;98999.94;5013454;28;20246;-58
2022/11/06 17:21:23;;;;;;;2.83;1.50;;;;;;;13.24;51.22;98988.41;5013998;28;20050;-60
2022/11/06 17:23:51;;;;;;;2.67;1.42;;;;;;;13.18;51.34;98994.19;5013301;28;20065;-60
2022/11/06 17:26:27;;;;;;;5.70;1.63;;;;;;;13.09;51.82;98989.66;5013312;28;20092;-59
2022/11/06 17:28:55;;;;;;;4.15;1.42;;;;;;;13.04;51.66;98992.66;5013620;28;20057;-58
2022/11/06 17:31:22;;;;;;;4.07;1.75;;;;;;;12.97;51.58;98980.91;4996015;28;20045;-59
2022/11/06 17:33:50;;;;;;;2.67;1.58;;;;;;;12.90;51.76;98983.22;5013345;28;20461;-60
2022/11/06 17:36:28;;;;;;;3.00;1.23;;;;;;;12.80;52.47;98969.88;4995617;28;20077;-59
2022/11/06 17:38:56;;;;;;;3.42;1.33;;;;;;;12.77;51.73;98965.69;5012916;28;20061;-59
2022/11/06 17:41:31;;;;;;;2.97;1.60;;;;;;;12.71;52.30;98944.22;4995578;28;20046;-59
2022/11/06 17:44:08;;;;;;;3.28;1.30;;;;;;;12.61;53.31;98928.25;5013043;28;20148;-60
2022/11/06 17:46:37;;;;;;;4.10;1.33;;;;;;;12.59;52.51;98933.66;4995262;28;20096;-59
2022/11/06 17:49:04;;;;;;;2.45;1.20;;;;;;;12.54;52.87;98914.69;5012702;28;20042;-59
2022/11/06 17:51:49;;;;;;;3.33;1.27;;;;;;;12.50;52.87;98915.91;5013015;28;20100;-59
2022/11/06 17:54:18;;;;;;;4.20;1.95;;;;;;;12.47;53.03;98910.84;5012984;28;20057;-59
2022/11/06 17:56:44;;;;;;;3.05;1.50;;;;;;;12.44;53.29;98906.66;5012524;28;20490;-62
2022/11/06 17:59:12;;;;;;;2.78;1.27;;;;;;;12.42;53.40;98908.59;5012742;28;20049;-60
2022/11/06 18:01:39;;;;;;;1.85;1.30;;;;;;;12.40;53.48;98899.13;4995285;28;20050;-61
2022/11/06 18:04:07;;;;;;;3.78;1.27;;;;;;;12.38;53.49;98900.06;5012640;28;20313;-60
2022/11/06 18:06:34;;;;;;;8.65;1.55;;;;;;;12.36;53.58;98890.56;5012552;28;20052;-59
2022/11/06 18:09:03;;;;;;;1.90;1.20;;;;;;;12.35;53.85;98888.91;4995225;28;20383;-60
2022/11/06 18:11:30;;;;;;;4.63;1.50;;;;;;;12.33;53.90;98878.47;5012467;28;20100;-59
2022/11/06 18:13:56;;;;;;;1.90;1.30;;;;;;;12.31;54.01;98859.28;5012650;28;20056;-59
2022/11/06 18:16:28;;;;;;;5.82;1.25;;;;;;;12.30;54.13;98873.41;5012556;28;20068;-60
2022/11/06 18:18:55;;;;;;;3.15;1.33;;;;;;;12.30;54.02;98875.25;5011585;28;20454;-59
2022/11/06 18:21:23;;;;;;;2.85;1.30;;;;;;;12.29;53.92;98878.84;5012387;28;20053;-60
2022/11/06 18:23:50;;;;;;;1.85;0.90;;;;;;;12.27;53.87;98889.50;5012358;28;20054;-59
2022/11/06 18:26:20;;;;;;;2.13;1.23;;;;;;;12.24;53.95;98879.19;5012110;28;20049;-60
2022/11/06 18:28:47;;;;;;;3.03;1.58;;;;;;;12.22;54.00;98881.09;5011920;28;20145;-60
2022/11/06 18:31:13;;;;;;;2.40;1.42;;;;;;;12.20;54.03;98875.13;4994751;28;20050;-59
2022/11/06 18:33:40;;;;;;;2.50;1.25;;;;;;;12.18;54.04;98861.22;5012074;28;20061;-60
2022/11/06 18:36:08;;;;;;;1.38;1.10;;;;;;;12.16;54.09;98863.13;5011995;28;20054;-62
2022/11/06 18:38:35;;;;;;;2.95;1.60;;;;;;;12.16;53.94;98852.56;4994443;28;20514;-59